createdAt,value
2019-02-22T00:02:27.204Z,3.58
2019-02-22T00:07:03.012Z,4.28
2019-02-22T00:11:38.786Z,3.80
2019-02-22T00:16:14.548Z,4.12
2019-02-22T00:20:50.337Z,3.42
2019-02-22T00:25:26.089Z,4.30
2019-02-22T00:30:01.892Z,3.50
2019-02-22T00:34:37.716Z,5.03
2019-02-22T00:39:13.822Z,3.95
2019-02-22T00:43:49.589Z,3.42
2019-02-22T00:48:25.441Z,3.90
2019-02-22T00:53:01.201Z,4.37
2019-02-22T00:57:37.011Z,6.20
2019-02-22T01:02:12.780Z,4.50
2019-02-22T01:06:48.571Z,4.47
2019-02-22T01:11:24.397Z,3.30
2019-02-22T01:16:00.246Z,3.83
2019-02-22T01:20:36.018Z,3.83
2019-02-22T01:25:11.793Z,4.10
2019-02-22T01:29:47.564Z,3.08
2019-02-22T01:34:23.337Z,3.98
2019-02-22T01:38:59.141Z,4.12
2019-02-22T01:43:34.925Z,3.98
2019-02-22T01:48:10.702Z,4.40
2019-02-22T01:52:46.496Z,4.42
2019-02-22T01:57:22.264Z,4.12
2019-02-22T02:01:58.208Z,3.87
2019-02-22T02:06:33.973Z,4.50
2019-02-22T02:11:09.836Z,4.45
2019-02-22T02:15:45.611Z,3.95
2019-02-22T02:20:21.416Z,4.45
2019-02-22T02:24:57.233Z,5.05
2019-02-22T02:29:33.022Z,6.30
2019-02-22T02:34:08.780Z,4.40
2019-02-22T02:38:45.657Z,5.45
2019-02-22T02:43:21.421Z,3.55
2019-02-22T02:47:57.222Z,4.83
2019-02-22T02:52:32.978Z,5.50
2019-02-22T02:57:08.829Z,4.62
2019-02-22T03:01:44.604Z,4.47
2019-02-22T03:06:45.272Z,4.65
2019-02-22T03:11:21.450Z,3.87
2019-02-22T03:15:57.507Z,4.08
2019-02-22T03:20:34.505Z,4.72
2019-02-22T03:25:10.920Z,5.00
2019-02-22T03:29:46.750Z,4.87
2019-02-22T03:34:22.553Z,4.70
2019-02-22T03:38:58.373Z,3.98
2019-02-22T03:43:34.232Z,4.00
2019-02-22T03:48:10.001Z,4.40
2019-02-22T03:52:54.969Z,4.28
2019-02-22T03:57:30.765Z,3.95
2019-02-22T04:02:06.617Z,3.92
2019-02-22T04:06:42.403Z,4.33
2019-02-22T04:11:20.146Z,4.35
2019-02-22T04:15:55.901Z,4.33
2019-02-22T04:20:31.882Z,5.15
2019-02-22T04:25:07.887Z,4.08
2019-02-22T04:29:43.707Z,3.85
2019-02-22T04:34:19.522Z,4.33
2019-02-22T04:38:55.299Z,4.90
2019-02-22T04:43:31.054Z,4.28
2019-02-22T04:48:06.825Z,5.10
2019-02-22T04:52:42.813Z,4.00
2019-02-22T04:57:18.645Z,4.25
2019-02-22T05:01:54.475Z,3.92
2019-02-22T05:06:30.282Z,4.37
2019-02-22T05:11:06.073Z,4.30
2019-02-22T05:15:42.043Z,4.85
2019-02-22T05:20:17.817Z,4.90
2019-02-22T05:24:53.612Z,4.40
2019-02-22T05:29:29.494Z,4.80
2019-02-22T05:34:05.317Z,4.37
2019-02-22T05:38:41.406Z,4.08
2019-02-22T05:43:17.233Z,5.08
2019-02-22T05:47:52.982Z,4.90
2019-02-22T05:52:28.764Z,5.65
2019-02-22T05:57:04.537Z,6.37
2019-02-22T06:01:40.317Z,5.05
2019-02-22T06:06:16.106Z,5.62
2019-02-22T06:10:51.880Z,5.50
2019-02-22T06:15:27.677Z,5.15
2019-02-22T06:20:03.464Z,6.83
2019-02-22T06:24:39.300Z,5.00
2019-02-22T06:29:15.165Z,6.15
2019-02-22T06:33:50.929Z,5.60
2019-02-22T06:38:28.220Z,6.17
2019-02-22T06:43:02.301Z,6.17
2019-02-22T06:47:38.073Z,5.40
2019-02-22T06:52:13.837Z,6.17
2019-02-22T06:56:49.684Z,6.15
2019-02-22T07:01:25.550Z,6.58
2019-02-22T07:06:01.412Z,6.67
2019-02-22T07:11:11.482Z,6.78
2019-02-22T07:15:47.292Z,8.90
2019-02-22T07:20:23.080Z,10.58
2019-02-22T07:24:58.856Z,11.70
2019-02-22T07:29:35.779Z,7.72
2019-02-22T07:34:11.621Z,6.17
2019-02-22T07:38:47.418Z,6.00
2019-02-22T07:43:23.257Z,6.83
2019-02-22T07:47:59.047Z,5.90
2019-02-22T07:52:34.832Z,6.15
2019-02-22T07:57:10.644Z,7.90
2019-02-22T08:01:47.978Z,7.15
2019-02-22T08:06:23.974Z,5.97
2019-02-22T08:10:59.728Z,7.58
2019-02-22T08:15:35.572Z,7.97
2019-02-22T08:20:11.383Z,8.35
2019-02-22T08:24:47.176Z,7.40
2019-02-22T08:29:22.980Z,7.30
2019-02-22T08:33:58.768Z,7.65
2019-02-22T08:38:34.530Z,6.80
2019-02-22T08:43:10.325Z,8.25
2019-02-22T08:47:46.084Z,8.55
2019-02-22T08:52:21.873Z,8.68
2019-02-22T08:56:57.638Z,8.83
2019-02-22T09:01:35.579Z,7.42
2019-02-22T09:06:10.905Z,7.95
2019-02-22T09:10:57.324Z,8.48
2019-02-22T09:15:25.002Z,8.08
2019-02-22T09:20:00.785Z,8.05
2019-02-22T09:24:36.612Z,8.73
2019-02-22T09:29:12.486Z,8.85
2019-02-22T09:33:48.277Z,8.25
2019-02-22T09:38:24.052Z,9.20
2019-02-22T09:42:59.808Z,8.80
2019-02-22T09:47:35.602Z,8.90
2019-02-22T09:52:11.366Z,8.90
2019-02-22T09:56:47.177Z,7.70
2019-02-22T10:01:23.017Z,9.65
2019-02-22T10:05:58.810Z,9.95
2019-02-22T10:10:34.582Z,9.53
2019-02-22T10:15:10.710Z,8.63
2019-02-22T10:19:46.464Z,11.50
2019-02-22T10:24:22.261Z,10.75
2019-02-22T10:28:58.057Z,10.05
2019-02-22T10:33:36.969Z,10.13
2019-02-22T10:38:13.519Z,9.60
2019-02-22T10:42:49.576Z,9.10
2019-02-22T10:47:25.364Z,10.58
2019-02-22T10:52:01.713Z,12.15
2019-02-22T11:01:51.865Z,13.20
2019-02-22T11:06:27.647Z,12.47
2019-02-22T11:11:03.444Z,11.50
2019-02-22T11:15:39.225Z,10.60
2019-02-22T11:20:15.061Z,11.90
2019-02-22T11:24:50.821Z,11.95
2019-02-22T11:29:26.629Z,10.32
2019-02-22T11:34:02.415Z,11.95
2019-02-22T11:38:38.265Z,13.10
2019-02-22T11:43:14.092Z,13.03
2019-02-22T11:47:49.911Z,11.63
2019-02-22T11:52:25.692Z,13.60
2019-02-22T11:57:01.464Z,11.95
2019-02-22T12:01:37.433Z,12.07
2019-02-22T12:06:13.244Z,12.98
2019-02-22T12:10:49.044Z,11.57
2019-02-22T12:15:24.909Z,11.48
2019-02-22T12:20:00.761Z,11.12
2019-02-22T12:24:36.557Z,12.65
2019-02-22T12:29:12.345Z,11.10
2019-02-22T12:33:48.219Z,12.33
2019-02-22T12:38:24.002Z,12.35
2019-02-22T12:42:59.858Z,12.10
2019-02-22T12:47:35.645Z,12.33
2019-02-22T12:52:11.452Z,11.40
2019-02-22T12:56:57.491Z,11.50
2019-02-22T13:01:24.795Z,12.90
2019-02-22T13:06:00.568Z,10.75
2019-02-22T13:10:36.380Z,11.05
2019-02-22T13:15:14.371Z,14.47
2019-02-22T13:19:50.320Z,13.22
2019-02-22T13:24:26.089Z,15.05
2019-02-22T13:29:01.890Z,14.38
2019-02-22T13:33:37.676Z,13.28
2019-02-22T13:38:13.475Z,12.78
2019-02-22T13:42:49.243Z,13.75
2019-02-22T13:47:25.996Z,14.05
2019-02-22T13:52:01.770Z,12.35
2019-02-22T13:56:37.565Z,14.55
2019-02-22T14:01:13.733Z,13.80
2019-02-22T14:05:49.614Z,15.40
2019-02-22T14:10:26.905Z,12.20
2019-02-22T14:15:02.731Z,13.43
2019-02-22T14:19:38.513Z,12.35
2019-02-22T14:24:14.343Z,13.95
2019-02-22T14:28:50.111Z,12.47
2019-02-22T14:33:25.892Z,18.15
2019-02-22T14:38:01.673Z,15.48
2019-02-22T14:42:38.546Z,15.35
2019-02-22T14:47:14.322Z,15.32
2019-02-22T14:51:50.232Z,16.80
2019-02-22T14:56:25.997Z,16.05
2019-02-22T15:01:01.789Z,17.25
2019-02-22T15:05:37.553Z,16.25
2019-02-22T15:10:13.561Z,16.37
2019-02-22T15:14:49.349Z,17.32
2019-02-22T15:19:25.141Z,16.55
2019-02-22T15:24:00.915Z,16.97
2019-02-22T15:28:36.704Z,17.95
2019-02-22T15:33:12.482Z,15.58
2019-02-22T15:37:48.296Z,17.32
2019-02-22T15:42:24.075Z,15.75
2019-02-22T15:47:11.103Z,16.40
2019-02-22T15:51:39.293Z,15.20
2019-02-22T15:56:13.060Z,18.00
2019-02-22T16:00:48.855Z,19.42
2019-02-22T16:05:27.976Z,32.28
2019-02-22T16:10:04.144Z,16.42
2019-02-22T16:14:39.933Z,15.55
2019-02-22T16:19:15.737Z,14.58
2019-02-22T16:23:51.530Z,17.25
2019-02-22T16:28:27.289Z,17.80
2019-02-22T16:33:03.104Z,18.67
2019-02-22T16:37:38.909Z,16.52
2019-02-22T16:42:14.689Z,17.82
2019-02-22T16:46:50.468Z,16.00
2019-02-22T16:51:26.297Z,15.03
2019-02-22T16:56:02.097Z,20.92
2019-02-22T17:00:37.938Z,23.18
2019-02-22T17:05:15.061Z,18.62
2019-02-22T17:09:50.849Z,15.58
2019-02-22T17:14:26.624Z,16.87
2019-02-22T17:19:02.401Z,18.27
2019-02-22T17:23:38.220Z,28.35
2019-02-22T17:28:13.985Z,25.08
2019-02-22T17:32:49.743Z,34.35
2019-02-22T17:37:25.531Z,17.37
2019-02-22T17:42:01.308Z,15.18
2019-02-22T17:46:37.094Z,18.00
2019-02-22T17:51:12.877Z,16.17
2019-02-22T17:55:48.672Z,16.05
2019-02-22T18:00:25.159Z,15.58
2019-02-22T18:05:01.288Z,17.05
2019-02-22T18:09:37.065Z,18.17
2019-02-22T18:14:12.869Z,18.52
2019-02-22T18:23:23.293Z,17.00
2019-02-22T18:27:59.058Z,16.85
2019-02-22T18:32:34.853Z,15.63
2019-02-22T18:37:10.628Z,15.85
2019-02-22T18:41:46.409Z,16.15
2019-02-22T18:46:22.172Z,13.98
2019-02-22T18:50:58.028Z,16.57
2019-02-22T18:55:33.795Z,18.17
2019-02-22T19:00:13.474Z,16.62
2019-02-22T19:04:49.245Z,16.95
2019-02-22T19:09:25.401Z,17.60
2019-02-22T19:14:01.172Z,17.57
2019-02-22T19:18:36.977Z,18.05
2019-02-22T19:23:12.736Z,16.82
2019-02-22T19:27:48.545Z,16.05
2019-02-22T19:32:24.322Z,15.90
2019-02-22T19:37:00.189Z,15.55
2019-02-22T19:41:35.992Z,15.30
2019-02-22T19:46:11.787Z,16.62
2019-02-22T19:50:47.592Z,13.10
2019-02-22T19:55:23.418Z,12.82
2019-02-22T19:59:59.189Z,12.80
2019-02-22T20:04:34.975Z,11.73
2019-02-22T20:09:10.742Z,16.23
2019-02-22T20:13:46.556Z,19.32
2019-02-22T20:18:22.329Z,18.23
2019-02-22T20:22:58.123Z,18.17
2019-02-22T20:27:33.903Z,16.05
2019-02-22T20:32:09.721Z,18.90
2019-02-22T20:36:45.496Z,20.52
2019-02-22T20:41:21.309Z,19.55
2019-02-22T20:45:57.142Z,20.90
2019-02-22T20:50:33.281Z,20.75
2019-02-22T20:55:09.388Z,19.50
2019-02-22T20:59:45.169Z,18.48
2019-02-22T21:04:20.946Z,17.32
2019-02-22T21:08:56.737Z,18.90
2019-02-22T21:13:32.522Z,19.17
2019-02-22T21:18:16.010Z,18.67
2019-02-22T21:22:47.084Z,20.05
2019-02-22T21:27:22.922Z,19.77
2019-02-22T21:31:58.940Z,15.30
2019-02-22T21:36:35.007Z,19.00
2019-02-22T21:41:11.322Z,18.23
2019-02-22T21:45:47.174Z,18.42
2019-02-22T21:50:22.950Z,19.85
2019-02-22T21:54:58.761Z,19.98
2019-02-22T21:59:34.541Z,20.88
2019-02-22T22:04:10.330Z,19.87
2019-02-22T22:08:46.180Z,19.67
2019-02-22T22:13:21.964Z,17.05
2019-02-22T22:17:57.742Z,17.02
2019-02-22T22:22:33.558Z,15.18
2019-02-22T22:27:09.392Z,15.53
2019-02-22T22:31:45.207Z,13.58
2019-02-22T22:36:20.988Z,12.20
2019-02-22T22:40:56.860Z,13.63
2019-02-22T22:45:32.659Z,12.98
2019-02-22T22:50:10.978Z,14.73
2019-02-22T22:54:46.743Z,11.48
2019-02-22T22:59:22.799Z,13.37
2019-02-22T23:03:58.860Z,12.40
2019-02-22T23:08:34.648Z,11.60
2019-02-22T23:13:29.327Z,13.50
2019-02-22T23:18:05.106Z,13.30
2019-02-22T23:22:41.069Z,14.00
2019-02-22T23:27:16.854Z,12.68
2019-02-22T23:31:52.616Z,12.63
2019-02-22T23:36:28.400Z,10.90
2019-02-22T23:41:04.173Z,9.43
2019-02-22T23:45:39.977Z,7.73
2019-02-22T23:50:15.741Z,7.92
2019-02-22T23:54:51.601Z,8.05
2019-02-22T23:59:27.381Z,11.35
